sensor_id;sensor_type;location;lat;lon;timestamp;pressure;altitude;pressure_sealevel;temperature;humidity
69593;BME280;56796;50.122;14.468;2023-11-21T00:00:20;972.95;;;8.64;91.95
69593;BME280;56796;50.122;14.468;2023-11-21T00:19:47;972.88;;;8.59;92.27
69593;BME280;56796;50.122;14.468;2023-11-21T00:39:16;972.91;;;8.54;92.67
69593;BME280;56796;50.122;14.468;2023-11-21T00:58:36;972.93;;;8.52;92.93
69593;BME280;56796;50.122;14.468;2023-11-21T01:18:02;973.09;;;8.43;93.7
69593;BME280;56796;50.122;14.468;2023-11-21T01:37:28;972.93;;;8.28;94.13
69593;BME280;56796;50.122;14.468;2023-11-21T01:56:53;973.16;;;8.28;94.41
69593;BME280;56796;50.122;14.468;2023-11-21T02:16:19;973.09;;;8.18;94.86
69593;BME280;56796;50.122;14.468;2023-11-21T02:35:45;973.02;;;8.05;95.45
69593;BME280;56796;50.122;14.468;2023-11-21T02:55:10;973;;;8.01;95.72
69593;BME280;56796;50.122;14.468;2023-11-21T03:14:36;972.99;;;7.97;95.75
69593;BME280;56796;50.122;14.468;2023-11-21T03:34:03;973.09;;;7.96;95.51
69593;BME280;56796;50.122;14.468;2023-11-21T03:53:29;973.02;;;7.86;95.71
69593;BME280;56796;50.122;14.468;2023-11-21T04:12:55;973.23;;;7.81;95.95
69593;BME280;56796;50.122;14.468;2023-11-21T04:32:21;973.32;;;7.81;96
69593;BME280;56796;50.122;14.468;2023-11-21T04:51:47;973.37;;;7.82;95.99
69593;BME280;56796;50.122;14.468;2023-11-21T05:30:38;973.5;;;7.64;96.71
69593;BME280;56796;50.122;14.468;2023-11-21T05:50:04;973.66;;;7.65;96.72
69593;BME280;56796;50.122;14.468;2023-11-21T06:09:31;973.67;;;7.61;96.76
69593;BME280;56796;50.122;14.468;2023-11-21T06:28:57;973.93;;;7.57;96.58
69593;BME280;56796;50.122;14.468;2023-11-21T06:48:23;974.23;;;7.66;96.26
69593;BME280;56796;50.122;14.468;2023-11-21T07:07:50;974.21;;;7.77;95.62
69593;BME280;56796;50.122;14.468;2023-11-21T07:27:17;974.23;;;7.92;95.27
69593;BME280;56796;50.122;14.468;2023-11-21T07:46:45;974.39;;;8.35;94.47
69593;BME280;56796;50.122;14.468;2023-11-21T08:06:13;974.4;;;8.63;92.34
69593;BME280;56796;50.122;14.468;2023-11-21T08:25:42;974.53;;;8.76;89.79
69593;BME280;56796;50.122;14.468;2023-11-21T08:45:09;974.62;;;8.93;88.72
69593;BME280;56796;50.122;14.468;2023-11-21T09:04:35;974.84;;;8.87;87.89
69593;BME280;56796;50.122;14.468;2023-11-21T09:24:00;975.02;;;8.95;87.88
69593;BME280;56796;50.122;14.468;2023-11-21T09:43:29;975.16;;;8.99;86.14
69593;BME280;56796;50.122;14.468;2023-11-21T10:02:56;975.16;;;9.39;83.58
69593;BME280;56796;50.122;14.468;2023-11-21T10:22:24;975.2;;;9.76;80.83
69593;BME280;56796;50.122;14.468;2023-11-21T10:41:52;975.23;;;9.46;80.5
69593;BME280;56796;50.122;14.468;2023-11-21T11:01:17;975.24;;;9.6;80.49
69593;BME280;56796;50.122;14.468;2023-11-21T11:20:48;975.07;;;11.42;74.06
69593;BME280;56796;50.122;14.468;2023-11-21T11:40:17;975.05;;;10.37;73.59
69593;BME280;56796;50.122;14.468;2023-11-21T12:19:06;975.23;;;9.45;77.44
69593;BME280;56796;50.122;14.468;2023-11-21T12:38:33;975.32;;;9.34;80.4
69593;BME280;56796;50.122;14.468;2023-11-21T12:58:01;975.31;;;9.3;81.81
69593;BME280;56796;50.122;14.468;2023-11-21T13:17:20;975.42;;;8.77;85.65
69593;BME280;56796;50.122;14.468;2023-11-21T13:36:45;975.6;;;8.52;88.35
69593;BME280;56796;50.122;14.468;2023-11-21T13:56:11;975.88;;;8.18;92.25
69593;BME280;56796;50.122;14.468;2023-11-21T14:15:36;976.08;;;7.73;96.62
69593;BME280;56796;50.122;14.468;2023-11-21T14:35:02;976.26;;;7.56;100
69593;BME280;56796;50.122;14.468;2023-11-21T14:54:27;976.34;;;7.4;100
69593;BME280;56796;50.122;14.468;2023-11-21T15:13:53;976.56;;;6.95;100
69593;BME280;56796;50.122;14.468;2023-11-21T15:33:18;976.84;;;6.25;100
69593;BME280;56796;50.122;14.468;2023-11-21T15:52:45;977.04;;;5.89;100
69593;BME280;56796;50.122;14.468;2023-11-21T16:12:02;977.44;;;5.66;100
69593;BME280;56796;50.122;14.468;2023-11-21T16:31:27;977.65;;;5.29;99.8
69593;BME280;56796;50.122;14.468;2023-11-21T16:50:51;977.91;;;4.84;97.14
69593;BME280;56796;50.122;14.468;2023-11-21T17:10:17;978.25;;;4.71;97.63
69593;BME280;56796;50.122;14.468;2023-11-21T17:29:43;978.42;;;4.61;96.54
69593;BME280;56796;50.122;14.468;2023-11-21T17:49:09;978.72;;;4.5;96.46
69593;BME280;56796;50.122;14.468;2023-11-21T18:08:35;978.92;;;4.33;96.77
69593;BME280;56796;50.122;14.468;2023-11-21T18:28:01;979.09;;;3.93;94.43
69593;BME280;56796;50.122;14.468;2023-11-21T18:47:25;979.48;;;3.79;95.19
69593;BME280;56796;50.122;14.468;2023-11-21T19:06:52;979.72;;;3.81;94.96
69593;BME280;56796;50.122;14.468;2023-11-21T19:26:21;979.95;;;3.74;95.21
69593;BME280;56796;50.122;14.468;2023-11-21T19:45:38;980.22;;;3.53;95.79
69593;BME280;56796;50.122;14.468;2023-11-21T20:05:03;980.5;;;3.39;96.02
69593;BME280;56796;50.122;14.468;2023-11-21T20:24:29;980.77;;;3.31;96.24
69593;BME280;56796;50.122;14.468;2023-11-21T20:43:55;981.09;;;3.25;95.96
69593;BME280;56796;50.122;14.468;2023-11-21T21:03:21;981.19;;;2.97;93.91
69593;BME280;56796;50.122;14.468;2023-11-21T21:22:46;981.44;;;2.9;93.77
69593;BME280;56796;50.122;14.468;2023-11-21T21:42:12;981.68;;;2.79;93.46
69593;BME280;56796;50.122;14.468;2023-11-21T22:01:42;981.85;;;2.54;92.64
69593;BME280;56796;50.122;14.468;2023-11-21T22:20:58;981.97;;;2.46;92.62
69593;BME280;56796;50.122;14.468;2023-11-21T22:40:23;982.12;;;2.34;92.21
69593;BME280;56796;50.122;14.468;2023-11-21T22:59:48;982.09;;;1.96;93.81
69593;BME280;56796;50.122;14.468;2023-11-21T23:19:14;982.28;;;1.87;92.89
69593;BME280;56796;50.122;14.468;2023-11-21T23:38:39;982.54;;;1.68;92.34
69593;BME280;56796;50.122;14.468;2023-11-21T23:58:05;982.7;;;1.59;93.1
